Surface Data

80.8 °F / 27.1 °C
NE at 10 MPH
92%
78.4°F / 25.8 °C
29.87" (1011 mb)
10 mile(s)
clear
2019.08.24 1140 UTC

Surface Data

Raw METARs

2019/08/24 11:40
PKWA 241140Z AUTO 05009KT 10SM CLR 27/26 A2987 RMK AO2 T02710258

Translated METAR

Station name not available
Aug 24, 2019 - 07:40 AM EDT / 2019.08.24 1140 UTC
Wind: from the NE (050 degrees) at 10 MPH (9 KT):0
Visibility: 10 mile(s):0
Sky conditions: clear
Temperature: 80.8 F (27.1 C)
Dew Point: 78.4 F (25.8 C)
Relative Humidity: 92%
Pressure (altimeter): 29.87 in. Hg (1011 hPa)
ob: PKWA 241140Z AUTO 05009KT 10SM CLR 27/26 A2987 RMK AO2 T02710258
cycle: 11